Fessenden, North Dakota
Current Conditions -  °F | °C
As of 7:35 PM on Sunday 23 Nov 2014 (Local Time) from K5H4 Reporting Station
Light Snow Light Snow  
Wind Chill: -5°   Ceiling: 1700
Heat Index: 14°   Visibility: 10mi
Dew Point:   Wind: 23mph
Humidity: 79%   Direction: 330°NNW
Pressure: 29.66"   Gusts: 29mph
Location:  47.65°N, 99.63°W
Report Text: K5H4 240135Z AUTO 33020G25KT 10SM -SN BKN017 OVC031 M10/M13 A2966 RMK AO2
Loading
Personal Weather Stations






























Interactive Weather Map New forecast layout! Learn more

10-Day Weather Forecast

Advertisements
Track Severe Weather on mobile